Time;durP1;ratioP1;P1;durP2;ratioP2;P2;SDS_P1;SDS_P2;PMS_P1;PMS_P2;Temp;Humidity;BMP_temperature;BMP_pressure;BME280_temperature;BME280_humidity;BME280_pressure;Samples;Min_cycle;Max_cycle;Signal;HPM_P1;HPM_P2
2022/01/24 00:01:16;;;;;;;28.20;15.63;;;;;;;;;;4967174;28;20058;-70
2022/01/24 00:03:42;;;;;;;26.90;14.82;;;;;;;;;;4966457;28;20040;-70
2022/01/24 00:06:11;;;;;;;24.25;14.98;;;;;;;;;;4957343;28;20039;-70
2022/01/24 00:08:37;;;;;;;23.60;14.63;;;;;;;;;;4972152;28;20575;-70
2022/01/24 00:11:09;;;;;;;29.35;15.00;;;;;;;;;;4956682;28;20412;-70
2022/01/24 00:16:31;;;;;;;27.75;15.30;;;;;;;;;;4953097;28;20058;-70
2022/01/24 00:26:54;;;;;;;26.25;15.10;;;;;;;;;;4971407;28;20057;-70
2022/01/24 00:29:22;;;;;;;25.75;14.57;;;;;;;;;;4968596;28;20035;-70
2022/01/24 00:31:48;;;;;;;25.55;15.15;;;;;;;;;;4954247;28;20562;-70
2022/01/24 00:34:14;;;;;;;24.17;14.73;;;;;;;;;;4963618;28;20043;-70
2022/01/24 00:36:41;;;;;;;27.08;14.95;;;;;;;;;;4967393;28;20046;-70
2022/01/24 00:39:07;;;;;;;23.38;14.52;;;;;;;;;;4972136;28;20043;-70
2022/01/24 00:41:43;;;;;;;25.27;14.65;;;;;;;;;;4951978;28;20130;-70
2022/01/24 00:46:43;;;;;;;23.50;14.88;;;;;;;;;;4953233;28;20055;-70
2022/01/24 00:57:05;;;;;;;23.27;13.80;;;;;;;;;;4952975;28;20039;-70
2022/01/24 00:59:31;;;;;;;22.27;13.43;;;;;;;;;;4954502;28;20465;-70
2022/01/24 01:01:57;;;;;;;23.83;13.20;;;;;;;;;;4971789;28;20039;-70
2022/01/24 01:04:30;;;;;;;23.90;13.25;;;;;;;;;;4971033;28;20477;-70
2022/01/24 01:07:03;;;;;;;22.08;13.27;;;;;;;;;;4967687;28;20047;-70
2022/01/24 01:20:35;;;;;;;20.90;12.75;;;;;;;;;;4960025;28;20122;-70
2022/01/24 01:23:01;;;;;;;20.48;11.80;;;;;;;;;;4953883;28;20429;-70
2022/01/24 01:25:27;;;;;;;21.08;12.27;;;;;;;;;;4960748;28;20031;-70
2022/01/24 01:27:54;;;;;;;18.70;11.73;;;;;;;;;;4964753;28;20039;-70
2022/01/24 01:30:25;;;;;;;21.02;12.50;;;;;;;;;;4965362;28;20130;-70
2022/01/24 01:35:36;;;;;;;21.05;12.48;;;;;;;;;;5092270;28;20032;-68
2022/01/24 01:38:34;;;;;;;20.85;11.77;;;;;;;;;;5092991;28;20121;-68
2022/01/24 01:55:36;;;;;;;18.17;12.05;;;;;;;;;;4989753;28;20061;-68
2022/01/24 01:58:03;;;;;;;17.67;11.30;;;;;;;;;;4990370;28;20046;-68
2022/01/24 02:00:29;;;;;;;20.08;11.77;;;;;;;;;;5047300;28;20068;-68
2022/01/24 02:02:55;;;;;;;17.38;11.70;;;;;;;;;;5073276;28;20474;-68
2022/01/24 02:05:22;;;;;;;21.17;11.75;;;;;;;;;;5082575;28;20036;-66
2022/01/24 02:07:49;;;;;;;19.63;11.68;;;;;;;;;;5092474;28;20050;-66
2022/01/24 02:10:16;;;;;;;19.00;11.55;;;;;;;;;;5083921;28;20463;-66
2022/01/24 02:12:42;;;;;;;18.58;11.60;;;;;;;;;;5075896;28;20047;-66
2022/01/24 02:15:08;;;;;;;17.85;11.18;;;;;;;;;;5085594;28;20040;-66
2022/01/24 02:20:39;;;;;;;19.33;11.60;;;;;;;;;;5077598;28;20110;-66
2022/01/24 02:25:49;;;;;;;17.73;11.70;;;;;;;;;;5076200;28;20045;-66
2022/01/24 02:28:18;;;;;;;18.42;11.15;;;;;;;;;;5091792;28;20036;-65
2022/01/24 02:30:58;;;;;;;19.10;11.13;;;;;;;;;;5077195;28;20055;-66
2022/01/24 02:33:25;;;;;;;18.13;11.18;;;;;;;;;;5073611;28;20048;-66
2022/01/24 02:35:51;;;;;;;16.45;11.07;;;;;;;;;;5079356;28;20036;-66
2022/01/24 02:49:34;;;;;;;17.73;11.20;;;;;;;;;;5019286;28;20047;-65
2022/01/24 02:52:06;;;;;;;18.27;11.15;;;;;;;;;;5071206;28;20046;-66
2022/01/24 02:54:33;;;;;;;19.15;11.40;;;;;;;;;;5080280;28;20493;-65
2022/01/24 02:57:00;;;;;;;20.52;11.73;;;;;;;;;;5080456;28;20039;-65
2022/01/24 02:59:26;;;;;;;17.77;11.45;;;;;;;;;;5086099;28;20032;-65
2022/01/24 03:01:52;;;;;;;21.50;11.75;;;;;;;;;;5067872;28;20039;-65
2022/01/24 03:04:18;;;;;;;19.73;11.85;;;;;;;;;;5079332;28;20496;-65
2022/01/24 03:06:45;;;;;;;18.75;11.70;;;;;;;;;;5082073;28;20494;-65
2022/01/24 03:09:11;;;;;;;18.95;11.90;;;;;;;;;;5076042;28;20032;-65
2022/01/24 03:12:39;;;;;;;20.83;11.90;;;;;;;;;;5081400;28;20048;-66
2022/01/24 03:14:25;;;;;;;19.15;12.60;;;;;;;;;;5060294;28;20087;-65
2022/01/24 03:16:51;;;;;;;19.17;12.50;;;;;;;;;;5075146;28;20040;-65
2022/01/24 03:19:17;;;;;;;21.02;13.07;;;;;;;;;;5076367;28;20032;-65
2022/01/24 03:21:43;;;;;;;22.08;13.27;;;;;;;;;;5077742;28;20120;-65
2022/01/24 03:24:09;;;;;;;21.42;13.00;;;;;;;;;;5075923;28;20044;-65
2022/01/24 03:26:35;;;;;;;22.80;13.52;;;;;;;;;;5075673;28;20036;-65
2022/01/24 03:29:01;;;;;;;20.52;12.50;;;;;;;;;;5094214;28;20074;-65
2022/01/24 03:31:27;;;;;;;22.50;13.57;;;;;;;;;;5086533;28;20075;-66
2022/01/24 03:33:53;;;;;;;25.40;14.57;;;;;;;;;;5069670;28;20041;-65
2022/01/24 03:36:19;;;;;;;21.77;12.68;;;;;;;;;;5071759;28;20394;-65
2022/01/24 03:38:45;;;;;;;23.17;13.82;;;;;;;;;;5072248;28;20044;-65
2022/01/24 03:41:11;;;;;;;21.77;13.32;;;;;;;;;;5067006;28;20032;-65
2022/01/24 03:43:37;;;;;;;22.60;13.35;;;;;;;;;;5074468;28;20049;-65
2022/01/24 03:49:08;;;;;;;24.55;13.52;;;;;;;;;;5071372;28;20049;-66
2022/01/24 03:51:32;;;;;;;22.30;13.00;;;;;;;;;;5068103;28;20037;-65
2022/01/24 03:53:58;;;;;;;23.25;13.55;;;;;;;;;;5071728;28;20452;-66
2022/01/24 03:56:24;;;;;;;25.10;13.98;;;;;;;;;;5074037;28;20452;-66
2022/01/24 03:58:50;;;;;;;22.73;13.35;;;;;;;;;;5074550;28;20036;-65
2022/01/24 04:01:16;;;;;;;25.13;13.98;;;;;;;;;;5073810;28;20040;-65
2022/01/24 04:03:42;;;;;;;24.67;14.07;;;;;;;;;;5074012;28;20048;-66
2022/01/24 04:06:08;;;;;;;25.20;14.95;;;;;;;;;;5067847;28;20047;-67
2022/01/24 04:08:34;;;;;;;22.45;13.75;;;;;;;;;;5071722;28;20085;-67
2022/01/24 04:11:01;;;;;;;24.13;14.77;;;;;;;;;;5072923;28;20029;-68
2022/01/24 04:13:37;;;;;;;24.15;14.20;;;;;;;;;;5072289;28;20056;-67
2022/01/24 04:23:55;;;;;;;24.80;14.75;;;;;;;;;;5072571;28;20142;-67
2022/01/24 04:26:21;;;;;;;25.38;14.77;;;;;;;;;;5072910;28;20040;-68
2022/01/24 04:28:47;;;;;;;25.23;14.95;;;;;;;;;;5073392;28;20057;-68
2022/01/24 04:31:13;;;;;;;26.50;15.00;;;;;;;;;;5073328;28;20047;-68
2022/01/24 04:33:39;;;;;;;29.23;16.70;;;;;;;;;;5073731;28;20044;-68
2022/01/24 04:36:06;;;;;;;24.83;15.32;;;;;;;;;;5073134;28;20107;-68
2022/01/24 04:38:32;;;;;;;29.40;16.65;;;;;;;;;;5073683;28;20040;-68
2022/01/24 04:41:03;;;;;;;27.77;15.73;;;;;;;;;;5070724;28;20452;-68
2022/01/24 04:43:47;;;;;;;27.92;15.57;;;;;;;;;;5069733;28;20086;-68
2022/01/24 04:54:39;;;;;;;30.98;17.63;;;;;;;;;;5072515;28;20551;-68
2022/01/24 04:57:07;;;;;;;32.45;17.35;;;;;;;;;;5064256;28;20040;-68
2022/01/24 04:59:33;;;;;;;32.90;18.00;;;;;;;;;;5072977;28;20109;-68
2022/01/24 05:01:59;;;;;;;33.15;17.30;;;;;;;;;;5067751;28;20031;-68
2022/01/24 05:04:25;;;;;;;30.02;17.30;;;;;;;;;;5072136;28;20036;-68
2022/01/24 05:06:51;;;;;;;26.38;16.08;;;;;;;;;;5070413;28;20339;-68
2022/01/24 05:09:19;;;;;;;26.33;16.42;;;;;;;;;;5077360;28;20112;-68
2022/01/24 05:11:52;;;;;;;29.35;17.08;;;;;;;;;;5069334;28;20040;-68
2022/01/24 05:25:17;;;;;;;29.20;16.52;;;;;;;;;;5068573;28;20071;-68
2022/01/24 05:27:43;;;;;;;29.13;17.33;;;;;;;;;;5070704;28;20044;-67
2022/01/24 05:30:09;;;;;;;28.58;17.05;;;;;;;;;;5071893;28;20055;-67
2022/01/24 05:32:35;;;;;;;30.58;16.52;;;;;;;;;;5064217;28;20484;-67
2022/01/24 05:35:01;;;;;;;30.08;17.38;;;;;;;;;;5073972;28;20048;-67
2022/01/24 05:37:27;;;;;;;32.97;17.38;;;;;;;;;;5068816;28;20041;-67
2022/01/24 05:39:53;;;;;;;43.47;23.10;;;;;;;;;;5085751;28;20685;-66
2022/01/24 05:42:21;;;;;;;46.08;23.13;;;;;;;;;;5070215;28;20028;-68
2022/01/24 05:44:48;;;;;;;43.83;23.60;;;;;;;;;;5082273;28;20047;-66
2022/01/24 05:47:14;;;;;;;42.80;22.35;;;;;;;;;;5079806;28;20044;-66
2022/01/24 05:49:40;;;;;;;48.00;24.83;;;;;;;;;;5061744;28;20048;-66
2022/01/24 05:52:09;;;;;;;44.92;24.13;;;;;;;;;;5050760;28;20041;-66
2022/01/24 05:54:36;;;;;;;55.90;28.92;;;;;;;;;;5067869;28;20041;-67
2022/01/24 05:57:02;;;;;;;55.58;28.27;;;;;;;;;;5071911;28;20075;-66
2022/01/24 05:59:28;;;;;;;54.67;27.77;;;;;;;;;;5071576;28;20032;-66
2022/01/24 06:01:54;;;;;;;53.97;26.35;;;;;;;;;;5072252;28;20115;-67
2022/01/24 06:04:20;;;;;;;60.75;29.38;;;;;;;;;;5071148;28;20076;-66
2022/01/24 06:06:46;;;;;;;62.15;30.10;;;;;;;;;;5071460;28;20040;-66
2022/01/24 06:09:12;;;;;;;61.20;29.65;;;;;;;;;;5072231;28;20040;-66
2022/01/24 06:11:38;;;;;;;63.53;30.48;;;;;;;;;;5071868;28;20043;-66
2022/01/24 06:14:04;;;;;;;60.78;29.67;;;;;;;;;;5067257;28;20047;-67
2022/01/24 06:16:30;;;;;;;66.07;31.85;;;;;;;;;;5071394;28;20040;-67
2022/01/24 06:18:56;;;;;;;62.80;31.60;;;;;;;;;;5071409;28;20070;-67
2022/01/24 06:21:23;;;;;;;65.68;32.20;;;;;;;;;;5071750;28;20060;-66
2022/01/24 06:23:49;;;;;;;64.43;31.58;;;;;;;;;;5075148;28;20080;-67
2022/01/24 06:26:15;;;;;;;65.88;30.95;;;;;;;;;;5077866;28;20040;-66
2022/01/24 06:28:41;;;;;;;63.75;30.90;;;;;;;;;;5058175;28;20082;-67
2022/01/24 06:31:07;;;;;;;66.97;31.70;;;;;;;;;;5077822;28;20061;-67
2022/01/24 06:33:34;;;;;;;63.15;30.73;;;;;;;;;;5076305;28;20073;-67
2022/01/24 06:36:00;;;;;;;64.35;31.35;;;;;;;;;;5066255;28;20033;-66
2022/01/24 06:38:26;;;;;;;67.75;32.25;;;;;;;;;;5071706;28;20033;-67
2022/01/24 06:40:52;;;;;;;62.70;32.08;;;;;;;;;;5072699;28;20039;-67
2022/01/24 06:43:18;;;;;;;65.38;31.58;;;;;;;;;;5083090;28;20037;-67
2022/01/24 06:45:44;;;;;;;66.32;31.00;;;;;;;;;;5080479;28;20050;-67
2022/01/24 06:48:10;;;;;;;68.75;32.20;;;;;;;;;;5072439;28;20405;-67
2022/01/24 06:50:37;;;;;;;68.15;32.58;;;;;;;;;;5077127;28;20402;-67
2022/01/24 06:53:03;;;;;;;67.40;31.73;;;;;;;;;;5071324;28;20119;-66
2022/01/24 06:55:29;;;;;;;68.88;32.83;;;;;;;;;;5068183;28;20136;-67
2022/01/24 06:57:55;;;;;;;66.22;29.45;;;;;;;;;;5071115;28;20025;-66
2022/01/24 07:00:25;;;;;;;65.03;30.48;;;;;;;;;;5071818;28;20082;-67
2022/01/24 07:02:52;;;;;;;68.73;34.43;;;;;;;;;;5070906;28;20041;-67
2022/01/24 07:05:18;;;;;;;65.72;31.13;;;;;;;;;;5070810;28;20052;-66
2022/01/24 07:07:44;;;;;;;69.60;32.80;;;;;;;;;;5070056;28;20041;-66
2022/01/24 07:10:10;;;;;;;73.65;33.08;;;;;;;;;;5080983;28;20105;-67
2022/01/24 07:12:36;;;;;;;70.75;32.03;;;;;;;;;;5072425;28;20036;-67
2022/01/24 07:15:08;;;;;;;70.38;32.22;;;;;;;;;;5064909;28;20044;-67
2022/01/24 07:20:18;;;;;;;65.50;31.13;;;;;;;;;;5064834;28;20037;-67
2022/01/24 07:22:44;;;;;;;71.60;33.28;;;;;;;;;;5070312;28;20048;-66
2022/01/24 07:25:10;;;;;;;67.60;32.90;;;;;;;;;;5070743;28;20079;-66
2022/01/24 07:27:36;;;;;;;72.53;32.63;;;;;;;;;;5083217;28;20047;-66
2022/01/24 07:30:03;;;;;;;74.13;32.97;;;;;;;;;;5073252;28;20040;-66
2022/01/24 07:32:29;;;;;;;72.60;35.15;;;;;;;;;;5083764;22;20032;31
2022/01/24 07:34:55;;;;;;;74.50;35.63;;;;;;;;;;5088265;28;20549;-67
2022/01/24 07:37:22;;;;;;;71.30;34.75;;;;;;;;;;5089981;28;20052;-66
2022/01/24 07:39:49;;;;;;;72.78;33.38;;;;;;;;;;5089200;28;20404;-66
2022/01/24 07:42:18;;;;;;;67.97;33.25;;;;;;;;;;5083629;28;20036;-67
2022/01/24 07:44:44;;;;;;;76.88;35.83;;;;;;;;;;5066126;28;20063;-66
2022/01/24 07:47:11;;;;;;;70.20;32.13;;;;;;;;;;5068663;28;20051;-66
2022/01/24 07:49:37;;;;;;;70.68;34.17;;;;;;;;;;5068898;28;20036;-65
2022/01/24 07:52:04;;;;;;;76.45;34.88;;;;;;;;;;5073096;28;20048;-65
2022/01/24 07:54:30;;;;;;;71.38;34.60;;;;;;;;;;5065942;28;20043;-65
2022/01/24 07:56:56;;;;;;;71.82;34.30;;;;;;;;;;5068154;28;20485;-65
2022/01/24 07:59:21;;;;;;;72.63;32.55;;;;;;;;;;5073626;28;20078;-65
2022/01/24 08:01:48;;;;;;;67.70;31.48;;;;;;;;;;5073412;28;20136;-65
2022/01/24 08:04:14;;;;;;;71.05;34.17;;;;;;;;;;5073348;28;20043;-65
2022/01/24 08:06:40;;;;;;;72.25;33.80;;;;;;;;;;5071592;28;20094;-65
2022/01/24 08:09:06;;;;;;;74.10;34.47;;;;;;;;;;5072816;28;20033;-65
2022/01/24 08:11:32;;;;;;;74.05;35.72;;;;;;;;;;5069031;28;20109;-65
2022/01/24 08:13:58;;;;;;;74.63;35.55;;;;;;;;;;5069273;28;20041;-65
2022/01/24 08:16:24;;;;;;;76.43;35.08;;;;;;;;;;5069004;28;20506;-65
2022/01/24 08:18:52;;;;;;;75.05;35.63;;;;;;;;;;5064869;28;20697;-65
2022/01/24 08:21:18;;;;;;;72.93;35.15;;;;;;;;;;5069821;28;20040;-65
2022/01/24 08:23:44;;;;;;;77.93;36.22;;;;;;;;;;5069531;28;20136;-65
2022/01/24 08:26:10;;;;;;;75.05;35.17;;;;;;;;;;5070981;28;20553;-65
2022/01/24 08:28:36;;;;;;;76.95;35.03;;;;;;;;;;5068849;28;20047;-65
2022/01/24 08:31:02;;;;;;;69.47;34.15;;;;;;;;;;5071532;28;20056;-66
2022/01/24 08:33:28;;;;;;;75.07;35.83;;;;;;;;;;5072672;28;20044;-68
2022/01/24 08:35:54;;;;;;;79.80;37.13;;;;;;;;;;5071825;28;20044;-68
2022/01/24 08:38:21;;;;;;;79.70;37.00;;;;;;;;;;5068514;28;20032;-67
2022/01/24 08:40:50;;;;;;;77.00;36.47;;;;;;;;;;5069560;28;20093;-67
2022/01/24 08:43:24;;;;;;;76.05;36.22;;;;;;;;;;5072823;28;20056;-67
2022/01/24 08:45:52;;;;;;;83.00;36.22;;;;;;;;;;5071138;28;20410;-67
2022/01/24 08:48:20;;;;;;;75.47;35.97;;;;;;;;;;5069055;28;20070;-66
2022/01/24 08:50:47;;;;;;;80.47;37.47;;;;;;;;;;5071110;28;20486;-67
2022/01/24 08:53:13;;;;;;;78.65;36.17;;;;;;;;;;5070133;28;20060;-67
2022/01/24 08:55:39;;;;;;;80.72;37.78;;;;;;;;;;5072041;28;20040;-67
2022/01/24 08:58:06;;;;;;;86.15;37.28;;;;;;;;;;5074696;28;20573;-67
2022/01/24 09:00:32;;;;;;;75.43;34.97;;;;;;;;;;5072663;28;20036;-67
2022/01/24 09:02:58;;;;;;;78.60;35.60;;;;;;;;;;5072096;28;20089;-68
2022/01/24 09:05:27;;;;;;;73.25;34.85;;;;;;;;;;5071134;28;20040;-68
2022/01/24 09:07:53;;;;;;;76.32;36.15;;;;;;;;;;5071590;28;20044;-68
2022/01/24 09:10:19;;;;;;;80.10;37.47;;;;;;;;;;5072384;28;20036;-66
2022/01/24 09:12:45;;;;;;;79.18;36.20;;;;;;;;;;5071860;28;20089;-66
2022/01/24 09:15:12;;;;;;;75.28;35.65;;;;;;;;;;5076185;28;20127;-66
2022/01/24 09:17:38;;;;;;;73.82;35.72;;;;;;;;;;5072011;28;20542;-66
2022/01/24 09:20:06;;;;;;;70.53;35.72;;;;;;;;;;5072385;28;20036;-66
2022/01/24 09:22:34;;;;;;;72.00;35.88;;;;;;;;;;5071202;28;20156;-66
2022/01/24 09:25:00;;;;;;;72.57;34.55;;;;;;;;;;5071039;28;20046;-66
2022/01/24 09:27:26;;;;;;;73.00;35.78;;;;;;;;;;5071691;28;20135;-65
2022/01/24 09:29:52;;;;;;;69.10;34.65;;;;;;;;;;5072603;28;20044;-65
2022/01/24 09:32:18;;;;;;;67.85;34.42;;;;;;;;;;5072511;28;20497;-65
2022/01/24 09:34:44;;;;;;;66.40;34.30;;;;;;;;;;5072171;28;20417;-65
2022/01/24 09:37:10;;;;;;;68.80;34.83;;;;;;;;;;5072880;28;20033;-65
2022/01/24 09:39:36;;;;;;;63.45;33.78;;;;;;;;;;5071260;28;20386;-65
2022/01/24 09:42:02;;;;;;;68.55;34.20;;;;;;;;;;5072154;28;20040;-65
2022/01/24 09:44:28;;;;;;;65.03;35.45;;;;;;;;;;5071718;28;20041;-65
2022/01/24 09:46:54;;;;;;;60.80;33.90;;;;;;;;;;5072413;28;20524;-65
2022/01/24 09:49:20;;;;;;;66.80;33.05;;;;;;;;;;5072681;28;20044;-65
2022/01/24 09:51:46;;;;;;;65.25;34.28;;;;;;;;;;5070626;28;20036;-65
2022/01/24 09:54:12;;;;;;;66.45;34.95;;;;;;;;;;5072124;28;20044;-65
2022/01/24 09:56:39;;;;;;;62.00;32.80;;;;;;;;;;5071557;28;20119;-65
2022/01/24 09:59:05;;;;;;;64.80;33.60;;;;;;;;;;5072576;28;20466;-65
2022/01/24 10:01:33;;;;;;;65.07;34.95;;;;;;;;;;5072297;28;20028;-65
2022/01/24 10:04:08;;;;;;;63.80;34.70;;;;;;;;;;5072348;28;20045;-65
2022/01/24 10:06:52;;;;;;;63.45;34.42;;;;;;;;;;5071705;28;20036;-65
2022/01/24 10:09:26;;;;;;;66.18;36.25;;;;;;;;;;5051438;28;20171;-65
2022/01/24 10:12:33;;;;;;;65.80;35.88;;;;;;;;;;5070922;28;20501;-65
2022/01/24 10:17:45;;;;;;;60.83;34.00;;;;;;;;;;5072334;28;20086;-65
2022/01/24 10:20:19;;;;;;;59.60;34.47;;;;;;;;;;5072010;28;20075;-65
2022/01/24 10:23:00;;;;;;;64.50;34.72;;;;;;;;;;5071987;28;20068;-65
2022/01/24 10:25:26;;;;;;;62.70;33.10;;;;;;;;;;5055074;28;20037;-65
2022/01/24 10:27:59;;;;;;;62.47;33.85;;;;;;;;;;5071861;28;20033;-65
2022/01/24 10:30:27;;;;;;;64.53;35.40;;;;;;;;;;5070882;28;20366;-65
2022/01/24 10:32:55;;;;;;;64.22;34.75;;;;;;;;;;5071496;28;20085;-65
2022/01/24 10:35:31;;;;;;;59.47;33.92;;;;;;;;;;5068365;28;20087;-65
2022/01/24 10:38:21;;;;;;;62.97;34.20;;;;;;;;;;5071456;28;20036;-65
2022/01/24 10:43:21;;;;;;;58.90;33.88;;;;;;;;;;5071761;28;20097;-65
2022/01/24 10:45:47;;;;;;;60.03;33.13;;;;;;;;;;5071386;28;20516;-65
2022/01/24 10:48:14;;;;;;;62.47;34.50;;;;;;;;;;5071445;28;20592;-65
2022/01/24 10:50:40;;;;;;;59.85;32.65;;;;;;;;;;5069967;28;20177;-65
2022/01/24 10:53:11;;;;;;;64.03;33.47;;;;;;;;;;5071493;28;20120;-65
2022/01/24 10:55:40;;;;;;;59.90;34.15;;;;;;;;;;5070679;28;20099;-65
2022/01/24 10:58:13;;;;;;;59.70;33.45;;;;;;;;;;5071789;28;20071;-65
2022/01/24 11:00:40;;;;;;;60.88;32.92;;;;;;;;;;5070360;28;20093;-65
2022/01/24 11:03:06;;;;;;;59.22;33.85;;;;;;;;;;5071095;28;20074;-65
2022/01/24 11:05:36;;;;;;;57.75;32.75;;;;;;;;;;5070021;28;20169;-65
2022/01/24 11:08:09;;;;;;;63.92;34.33;;;;;;;;;;5071434;28;20040;-65
2022/01/24 11:10:46;;;;;;;60.65;33.72;;;;;;;;;;5069498;28;20079;-65
2022/01/24 11:13:13;;;;;;;64.78;34.85;;;;;;;;;;5068347;28;20565;-65
2022/01/24 11:15:44;;;;;;;61.92;33.38;;;;;;;;;;5071379;28;20044;-65
2022/01/24 11:18:15;;;;;;;61.97;33.45;;;;;;;;;;5071643;28;20543;-65
2022/01/24 11:20:45;;;;;;;57.90;30.42;;;;;;;;;;5071324;28;20049;-65
2022/01/24 11:23:11;;;;;;;63.25;33.35;;;;;;;;;;5071136;28;20040;-65
2022/01/24 11:25:39;;;;;;;64.80;34.65;;;;;;;;;;5073182;28;20507;-65
2022/01/24 11:28:06;;;;;;;63.10;35.53;;;;;;;;;;5074962;28;20041;-65
2022/01/24 11:30:39;;;;;;;58.60;31.35;;;;;;;;;;5075593;28;20040;-65
2022/01/24 11:33:05;;;;;;;61.78;31.00;;;;;;;;;;5074914;28;20036;-65
2022/01/24 11:35:32;;;;;;;60.08;33.00;;;;;;;;;;5074588;28;20067;-65
2022/01/24 11:37:59;;;;;;;55.10;32.25;;;;;;;;;;5074464;28;20035;-65
2022/01/24 11:40:25;;;;;;;50.33;30.10;;;;;;;;;;5074778;28;20044;-65
2022/01/24 11:42:52;;;;;;;52.95;30.80;;;;;;;;;;5074688;28;20485;-65
2022/01/24 11:45:43;;;;;;;54.22;30.75;;;;;;;;;;5074497;28;20117;-65
2022/01/24 11:48:17;;;;;;;49.70;28.35;;;;;;;;;;5074769;28;20047;-65
2022/01/24 11:50:53;;;;;;;50.58;29.90;;;;;;;;;;5074525;28;20040;-65
2022/01/24 11:53:21;;;;;;;52.72;31.02;;;;;;;;;;5073769;28;20036;-65
2022/01/24 11:55:47;;;;;;;50.15;28.27;;;;;;;;;;5074671;28;20068;-65
2022/01/24 11:58:21;;;;;;;40.42;26.25;;;;;;;;;;5074706;28;20457;-65
2022/01/24 12:00:47;;;;;;;43.58;27.63;;;;;;;;;;5074724;28;20040;-64
2022/01/24 12:03:20;;;;;;;41.38;26.13;;;;;;;;;;5074240;28;20044;-65
2022/01/24 12:05:56;;;;;;;41.33;27.00;;;;;;;;;;5074021;28;20053;-65
2022/01/24 12:08:30;;;;;;;43.08;26.35;;;;;;;;;;5074707;28;20064;-65
2022/01/24 12:11:10;;;;;;;45.30;26.50;;;;;;;;;;5074730;28;20037;-65
2022/01/24 12:13:40;;;;;;;48.80;28.85;;;;;;;;;;5074100;28;20036;-65
2022/01/24 12:16:07;;;;;;;41.73;27.00;;;;;;;;;;5074207;28;20043;-65
2022/01/24 12:18:33;;;;;;;45.53;26.15;;;;;;;;;;5074122;28;20028;-65
2022/01/24 12:21:05;;;;;;;41.63;25.67;;;;;;;;;;5073318;28;20075;-65
2022/01/24 12:23:31;;;;;;;44.53;26.40;;;;;;;;;;5074191;28;20040;-65
2022/01/24 12:26:05;;;;;;;45.80;27.38;;;;;;;;;;5073691;28;20046;-65
2022/01/24 12:28:43;;;;;;;41.83;25.85;;;;;;;;;;5073795;28;20521;-65
2022/01/24 12:31:21;;;;;;;43.97;27.10;;;;;;;;;;5074269;28;20080;-65
2022/01/24 12:33:53;;;;;;;50.88;29.70;;;;;;;;;;5073205;28;20072;-65
2022/01/24 12:36:38;;;;;;;48.72;29.40;;;;;;;;;;5073485;28;20045;-65
2022/01/24 12:39:15;;;;;;;47.88;29.02;;;;;;;;;;5073836;28;20521;-65
2022/01/24 12:41:47;;;;;;;46.38;28.02;;;;;;;;;;5073808;28;20040;-65
2022/01/24 12:46:18;;;;;;;;;;;;;;;;;;5074107;28;20569;-65
2022/01/24 12:46:58;;;;;;;48.50;28.83;;;;;;;;;;5072685;28;19970;-65
2022/01/24 12:49:26;;;;;;;48.80;28.35;;;;;;;;;;5073324;28;20044;-65
2022/01/24 12:51:53;;;;;;;52.50;29.00;;;;;;;;;;5072026;28;20055;-65
2022/01/24 12:54:18;;;;;;;51.33;30.88;;;;;;;;;;5073565;28;20402;-65
2022/01/24 12:56:44;;;;;;;56.58;32.17;;;;;;;;;;5072960;28;20040;-65
2022/01/24 12:59:11;;;;;;;50.85;28.75;;;;;;;;;;5073673;28;20060;-65
2022/01/24 13:01:37;;;;;;;49.58;28.75;;;;;;;;;;5073176;28;20045;-65
2022/01/24 13:04:10;;;;;;;53.42;31.80;;;;;;;;;;5073406;28;20036;-65
2022/01/24 13:06:37;;;;;;;48.80;29.52;;;;;;;;;;5073088;28;20075;-65
2022/01/24 13:09:19;;;;;;;48.75;28.92;;;;;;;;;;5073508;28;20043;-65
2022/01/24 13:11:45;;;;;;;48.67;30.73;;;;;;;;;;5073095;28;20076;-65
2022/01/24 13:14:15;;;;;;;48.42;30.58;;;;;;;;;;5072710;28;20059;-65
2022/01/24 13:22:37;;;;;;;43.65;29.73;;;;;;;;;;5072845;28;20085;-65
2022/01/24 13:25:06;;;;;;;43.75;29.45;;;;;;;;;;5072495;28;20041;-65
2022/01/24 13:27:40;;;;;;;47.17;30.00;;;;;;;;;;5073133;28;20041;-65
2022/01/24 13:30:08;;;;;;;45.85;29.65;;;;;;;;;;5070768;28;20550;-65
2022/01/24 13:35:17;;;;;;;40.30;27.08;;;;;;;;;;4987505;28;20046;-67
2022/01/24 13:37:43;;;;;;;42.55;26.10;;;;;;;;;;4990509;28;20042;-67
2022/01/24 13:40:09;;;;;;;36.03;24.05;;;;;;;;;;4990645;28;20042;-67
2022/01/24 13:42:36;;;;;;;35.50;23.05;;;;;;;;;;4990226;28;20408;-67
2022/01/24 13:45:03;;;;;;;36.17;24.20;;;;;;;;;;5002867;28;20414;-67
2022/01/24 13:47:29;;;;;;;36.75;25.08;;;;;;;;;;4989149;28;20038;-67
2022/01/24 13:49:55;;;;;;;38.42;23.98;;;;;;;;;;4990431;28;20129;-67
2022/01/24 13:52:22;;;;;;;38.90;24.77;;;;;;;;;;4990366;28;20042;-67
2022/01/24 13:54:52;;;;;;;38.65;24.95;;;;;;;;;;5002251;28;20231;-67
2022/01/24 13:57:18;;;;;;;32.17;21.33;;;;;;;;;;4991838;28;20038;-67
2022/01/24 13:59:44;;;;;;;32.22;21.75;;;;;;;;;;5009530;28;20050;-66
2022/01/24 14:02:10;;;;;;;31.23;21.83;;;;;;;;;;5002134;28;20053;-68
2022/01/24 14:04:41;;;;;;;33.28;22.77;;;;;;;;;;4990322;28;20046;-67
2022/01/24 14:07:08;;;;;;;37.63;24.80;;;;;;;;;;4988799;28;20518;-67
2022/01/24 14:09:34;;;;;;;30.80;20.75;;;;;;;;;;4989589;28;20112;-67
2022/01/24 14:12:01;;;;;;;32.00;22.42;;;;;;;;;;4988719;28;20072;-66
2022/01/24 14:14:37;;;;;;;32.30;22.30;;;;;;;;;;4989330;28;20122;-66
2022/01/24 14:19:44;;;;;;;31.50;21.83;;;;;;;;;;4990542;28;20038;-67
2022/01/24 14:22:14;;;;;;;36.78;23.17;;;;;;;;;;4988047;28;20089;-67
2022/01/24 14:24:47;;;;;;;36.22;22.63;;;;;;;;;;4989427;28;20048;-66
2022/01/24 14:27:14;;;;;;;36.08;23.45;;;;;;;;;;4989133;28;20403;-66
2022/01/24 14:29:40;;;;;;;33.63;22.85;;;;;;;;;;4992334;28;20038;-66
2022/01/24 14:32:12;;;;;;;37.47;24.58;;;;;;;;;;5041753;28;20118;-66
2022/01/24 14:34:38;;;;;;;38.30;25.20;;;;;;;;;;5067362;28;20752;-67
2022/01/24 14:37:05;;;;;;;40.17;26.45;;;;;;;;;;5008414;28;20042;-67
2022/01/24 14:39:32;;;;;;;39.55;25.95;;;;;;;;;;4989302;28;20053;-67
2022/01/24 14:42:07;;;;;;;40.83;25.67;;;;;;;;;;5031439;28;20038;-66
2022/01/24 14:47:18;;;;;;;39.92;25.80;;;;;;;;;;4970425;28;20133;-67
2022/01/24 14:49:44;;;;;;;43.03;26.27;;;;;;;;;;4979418;28;20125;-66
2022/01/24 14:52:18;;;;;;;39.85;26.27;;;;;;;;;;4988044;28;20038;-66
2022/01/24 14:54:44;;;;;;;42.40;26.45;;;;;;;;;;4990860;28;20050;-67
2022/01/24 14:57:12;;;;;;;45.08;27.10;;;;;;;;;;4988870;28;20041;-66
2022/01/24 14:59:41;;;;;;;46.45;28.13;;;;;;;;;;4991810;28;20046;-66
2022/01/24 15:02:08;;;;;;;45.35;27.25;;;;;;;;;;5026559;28;20043;-67
2022/01/24 15:04:34;;;;;;;41.80;26.08;;;;;;;;;;4992148;28;20038;-66
2022/01/24 15:07:00;;;;;;;44.50;26.52;;;;;;;;;;4991261;28;20049;-66
2022/01/24 15:09:27;;;;;;;45.53;26.85;;;;;;;;;;5023529;28;20497;-66
2022/01/24 15:11:54;;;;;;;44.35;26.25;;;;;;;;;;4992690;28;20050;-66
2022/01/24 15:17:45;;;;;;;42.72;26.83;;;;;;;;;;5072357;28;20036;-66
2022/01/24 15:25:30;;;;;;;41.50;25.15;;;;;;;;;;5010727;28;20057;-66
2022/01/24 15:27:57;;;;;;;46.17;27.73;;;;;;;;;;4999188;28;20070;-66
2022/01/24 15:30:24;;;;;;;47.22;28.50;;;;;;;;;;4999168;28;20495;-67
2022/01/24 15:32:50;;;;;;;41.75;26.52;;;;;;;;;;4992030;28;20120;-66
2022/01/24 15:35:16;;;;;;;50.90;32.00;;;;;;;;;;4993894;28;20053;-67
2022/01/24 15:37:43;;;;;;;47.40;28.42;;;;;;;;;;4986166;28;20499;-68
2022/01/24 15:40:09;;;;;;;42.40;26.77;;;;;;;;;;4993080;28;20115;-68
2022/01/24 15:42:43;;;;;;;47.20;26.92;;;;;;;;;;4991377;28;20049;-67
2022/01/24 15:47:47;;;;;;;46.03;27.35;;;;;;;;;;4991433;28;20050;-66
2022/01/24 15:50:14;;;;;;;46.50;26.73;;;;;;;;;;4986669;28;20048;-67
2022/01/24 15:52:41;;;;;;;46.60;27.42;;;;;;;;;;4991377;28;20042;-67
2022/01/24 15:55:08;;;;;;;45.05;26.85;;;;;;;;;;4991621;28;20442;-67
2022/01/24 15:57:42;;;;;;;43.17;26.83;;;;;;;;;;4993115;28;20099;-66
2022/01/24 16:00:25;;;;;;;45.40;26.95;;;;;;;;;;4991270;28;20044;-66
2022/01/24 16:02:52;;;;;;;46.67;27.23;;;;;;;;;;4989699;28;20384;-67
2022/01/24 16:05:19;;;;;;;45.88;27.17;;;;;;;;;;4991527;28;20049;-67
2022/01/24 16:07:46;;;;;;;48.83;28.05;;;;;;;;;;4986055;28;20038;-67
2022/01/24 16:10:14;;;;;;;46.33;27.58;;;;;;;;;;5001997;28;20496;-67
2022/01/24 16:12:43;;;;;;;45.58;26.85;;;;;;;;;;4985849;28;20081;-67
2022/01/24 16:15:09;;;;;;;46.65;27.08;;;;;;;;;;4991458;28;20053;-66
2022/01/24 16:17:35;;;;;;;45.10;26.52;;;;;;;;;;4988455;28;20072;-67
2022/01/24 16:20:09;;;;;;;44.00;27.40;;;;;;;;;;4992843;28;20464;-66
2022/01/24 16:22:57;;;;;;;49.55;27.95;;;;;;;;;;4986486;28;20038;-67
2022/01/24 16:28:04;;;;;;;49.10;28.67;;;;;;;;;;5008583;28;20143;-67
2022/01/24 16:30:30;;;;;;;54.22;32.53;;;;;;;;;;4994302;28;20030;-67
2022/01/24 16:33:00;;;;;;;52.63;31.25;;;;;;;;;;4990361;28;20471;-67
2022/01/24 16:35:26;;;;;;;51.67;29.98;;;;;;;;;;4995287;28;20045;-67
2022/01/24 16:37:53;;;;;;;52.83;29.27;;;;;;;;;;5000636;28;20575;-67